Wetterdaten: Woche 05.10.15 - 11.10.15 (KW41)
Datum Zeit Temp. A. Feuchte A. Luftdruck Regen Wind Richtung Sonnenschein ET UV Solar Taupunkt Windchill Windben
05.10.2015 00:00 9,3 C 94 % 1018,0 hPa 0,0 l/m 0,0 km/h (0 Bft) N 0,00 h 0,000 mm 0,0 UV-I 0 W/m 8,3 C 9,3 C 0,0 km/h (0 Bft)
05.10.2015 01:00 9,4 C 95 % 1017,7 hPa 0,0 l/m 0,0 km/h (0 Bft) N 0,00 h 0,000 mm 0,0 UV-I 0 W/m 8,6 C 9,4 C 0,1 km/h (0 Bft)
05.10.2015 02:00 9,2 C 95 % 1017,7 hPa 0,0 l/m 0,0 km/h (0 Bft) N 0,00 h 0,000 mm 0,0 UV-I 0 W/m 8,5 C 9,2 C 0,0 km/h (0 Bft)
05.10.2015 03:00 9,5 C 96 % 1017,6 hPa 0,0 l/m 0,0 km/h (0 Bft) N 0,00 h 0,000 mm 0,0 UV-I 0 W/m 8,9 C 9,5 C 0,1 km/h (0 Bft)
05.10.2015 04:00 9,8 C 96 % 1017,3 hPa 0,0 l/m 0,0 km/h (0 Bft) N 0,00 h 0,000 mm 0,0 UV-I 0 W/m 9,2 C 9,8 C 0,0 km/h (0 Bft)
05.10.2015 05:00 10,0 C 97 % 1017,3 hPa 0,0 l/m 0,0 km/h (0 Bft) N 0,00 h 0,000 mm 0,0 UV-I 0 W/m 9,5 C 10,0 C 0,1 km/h (0 Bft)
05.10.2015 06:00 10,0 C 97 % 1017,6 hPa 0,0 l/m 0,0 km/h (0 Bft) N 0,00 h 0,000 mm 0,0 UV-I 0 W/m 9,6 C 10,0 C 0,0 km/h (0 Bft)
05.10.2015 07:00 10,1 C 97 % 1017,5 hPa 0,0 l/m 0,0 km/h (0 Bft) N 0,00 h 0,000 mm 0,0 UV-I 7 W/m 9,7 C 10,1 C 0,1 km/h (0 Bft)
05.10.2015 08:00 10,2 C 97 % 1017,5 hPa 0,0 l/m 0,0 km/h (0 Bft) N 0,27 h 0,000 mm 0,0 UV-I 33 W/m 9,8 C 10,2 C 0,0 km/h (0 Bft)
05.10.2015 09:00 10,9 C 96 % 1017,6 hPa 0,0 l/m 0,0 km/h (0 Bft) N 1,00 h 0,025 mm 0,6 UV-I 95 W/m 10,3 C 10,9 C 0,0 km/h (0 Bft)
05.10.2015 10:00 11,9 C 93 % 1017,7 hPa 0,0 l/m 0,2 km/h (0 Bft) N 1,00 h 0,051 mm 0,9 UV-I 154 W/m 10,8 C 11,9 C 0,7 km/h (0 Bft)
05.10.2015 11:00 12,9 C 89 % 1017,7 hPa 0,0 l/m 2,1 km/h (1 Bft) N 1,00 h 0,076 mm 1,2 UV-I 156 W/m 11,2 C 12,9 C 4,1 km/h (1 Bft)
05.10.2015 12:00 14,0 C 85 % 1017,5 hPa 0,0 l/m 1,0 km/h (0 Bft) N 1,00 h 0,076 mm 2,1 UV-I 264 W/m 11,4 C 14,0 C 2,3 km/h (1 Bft)
05.10.2015 13:00 14,9 C 79 % 1016,7 hPa 0,0 l/m 0,7 km/h (0 Bft) N 1,00 h 0,152 mm 2,3 UV-I 342 W/m 11,4 C 14,9 C 1,8 km/h (1 Bft)
05.10.2015 14:00 15,1 C 78 % 1016,2 hPa 0,0 l/m 1,7 km/h (1 Bft) S 1,00 h 0,178 mm 1,5 UV-I 195 W/m 11,2 C 15,1 C 4,5 km/h (1 Bft)
05.10.2015 15:00 15,7 C 75 % 1015,5 hPa 0,0 l/m 1,9 km/h (1 Bft) N 1,00 h 0,102 mm 1,4 UV-I 317 W/m 11,2 C 15,7 C 4,3 km/h (1 Bft)
05.10.2015 16:00 15,3 C 75 % 1015,0 hPa 0,0 l/m 0,2 km/h (0 Bft) N 1,00 h 0,178 mm 0,6 UV-I 94 W/m 10,8 C 15,3 C 0,5 km/h (0 Bft)
05.10.2015 17:00 15,4 C 71 % 1014,4 hPa 0,0 l/m 3,0 km/h (1 Bft) SO 0,97 h 0,051 mm 0,5 UV-I 124 W/m 10,3 C 15,4 C 6,2 km/h (2 Bft)
05.10.2015 18:00 14,4 C 75 % 1014,0 hPa 0,0 l/m 0,1 km/h (0 Bft) N 0,00 h 0,076 mm 0,0 UV-I 23 W/m 10,0 C 14,4 C 0,2 km/h (0 Bft)
05.10.2015 19:00 13,0 C 80 % 1013,7 hPa 0,0 l/m 0,0 km/h (0 Bft) O 0,00 h 0,000 mm 0,0 UV-I 0 W/m 9,7 C 13,0 C 0,6 km/h (0 Bft)
05.10.2015 20:00 11,7 C 84 % 1013,2 hPa 0,0 l/m 0,2 km/h (0 Bft) N 0,00 h 0,025 mm 0,0 UV-I 0 W/m 9,1 C 11,7 C 0,7 km/h (0 Bft)
05.10.2015 21:00 10,6 C 87 % 1013,1 hPa 0,0 l/m 0,0 km/h (0 Bft) N 0,00 h 0,000 mm 0,0 UV-I 0 W/m 8,5 C 10,6 C 0,0 km/h (0 Bft)
05.10.2015 22:00 9,9 C 89 % 1012,8 hPa 0,0 l/m 0,0 km/h (0 Bft) N 0,00 h 0,000 mm 0,0 UV-I 0 W/m 8,2 C 9,9 C 0,0 km/h (0 Bft)
05.10.2015 23:00 9,3 C 91 % 1012,2 hPa 0,0 l/m 0,0 km/h (0 Bft) N 0,00 h 0,000 mm 0,0 UV-I 0 W/m 7,8 C 9,3 C 0,0 km/h (0 Bft)
06.10.2015 00:00 8,8 C 91 % 1011,7 hPa 0,0 l/m 0,0 km/h (0 Bft) N 0,00 h 0,000 mm 0,0 UV-I 0 W/m 7,4 C 8,8 C 0,1 km/h (0 Bft)
06.10.2015 01:00 8,1 C 92 % 1011,3 hPa 0,0 l/m 0,0 km/h (0 Bft) N 0,00 h 0,000 mm 0,0 UV-I 0 W/m 6,8 C 8,1 C 0,0 km/h (0 Bft)
06.10.2015 02:00 8,3 C 94 % 1010,9 hPa 0,0 l/m 0,0 km/h (0 Bft) N 0,00 h 0,000 mm 0,0 UV-I 0 W/m 7,4 C 8,3 C 0,3 km/h (0 Bft)
06.10.2015 03:00 8,5 C 94 % 1010,6 hPa 0,0 l/m 0,0 km/h (0 Bft) N 0,00 h 0,000 mm 0,0 UV-I 0 W/m 7,7 C 8,5 C 0,0 km/h (0 Bft)
06.10.2015 04:00 9,1 C 95 % 1010,2 hPa 0,2 l/m 0,0 km/h (0 Bft) N 0,00 h 0,000 mm 0,0 UV-I 0 W/m 8,3 C 9,1 C 0,2 km/h (0 Bft)
06.10.2015 05:00 9,3 C 95 % 1009,9 hPa 0,2 l/m 0,0 km/h (0 Bft) N 0,00 h 0,000 mm 0,0 UV-I 0 W/m 8,6 C 9,3 C 0,1 km/h (0 Bft)
06.10.2015 06:00 9,7 C 96 % 1009,6 hPa 0,0 l/m 0,0 km/h (0 Bft) N 0,00 h 0,000 mm 0,0 UV-I 0 W/m 9,1 C 9,7 C 0,1 km/h (0 Bft)
06.10.2015 07:00 9,9 C 96 % 1009,5 hPa 0,0 l/m 0,1 km/h (0 Bft) N 0,00 h 0,000 mm 0,0 UV-I 6 W/m 9,3 C 9,9 C 0,5 km/h (0 Bft)
06.10.2015 08:00 10,3 C 96 % 1009,4 hPa 0,2 l/m 0,1 km/h (0 Bft) N 0,00 h 0,000 mm 0,0 UV-I 13 W/m 9,6 C 10,3 C 0,4 km/h (0 Bft)
06.10.2015 09:00 11,0 C 95 % 1009,3 hPa 0,0 l/m 1,2 km/h (1 Bft) N 0,43 h 0,000 mm 0,0 UV-I 48 W/m 10,3 C 11,0 C 3,4 km/h (1 Bft)
06.10.2015 10:00 11,4 C 95 % 1009,3 hPa 0,2 l/m 0,4 km/h (0 Bft) N 0,57 h 0,025 mm 0,6 UV-I 62 W/m 10,6 C 11,4 C 1,5 km/h (1 Bft)
06.10.2015 11:00 11,6 C 94 % 1009,2 hPa 0,0 l/m 1,5 km/h (1 Bft) O-NO 1,00 h 0,025 mm 0,7 UV-I 86 W/m 10,7 C 11,6 C 4,3 km/h (1 Bft)
06.10.2015 12:00 12,4 C 92 % 1009,2 hPa 0,0 l/m 1,9 km/h (1 Bft) O 1,00 h 0,051 mm 1,3 UV-I 162 W/m 11,1 C 12,4 C 6,0 km/h (2 Bft)
06.10.2015 13:00 14,0 C 89 % 1008,7 hPa 0,0 l/m 2,3 km/h (1 Bft) O-NO 1,00 h 0,076 mm 1,9 UV-I 223 W/m 12,2 C 14,0 C 6,6 km/h (2 Bft)
06.10.2015 14:00 15,5 C 85 % 1008,1 hPa 0,0 l/m 2,0 km/h (1 Bft) O-NO 1,00 h 0,127 mm 2,2 UV-I 321 W/m 13,0 C 15,5 C 5,8 km/h (2 Bft)
06.10.2015 15:00 15,8 C 84 % 1007,6 hPa 0,0 l/m 2,8 km/h (1 Bft) O-NO 1,00 h 0,178 mm 1,4 UV-I 224 W/m 13,0 C 15,7 C 8,3 km/h (2 Bft)
06.10.2015 16:00 14,9 C 86 % 1007,4 hPa 0,0 l/m 2,5 km/h (1 Bft) O-NO 1,00 h 0,127 mm 0,8 UV-I 137 W/m 12,7 C 14,9 C 7,2 km/h (2 Bft)
06.10.2015 17:00 14,0 C 90 % 1007,5 hPa 0,0 l/m 1,6 km/h (1 Bft) O 0,65 h 0,076 mm 0,5 UV-I 57 W/m 12,3 C 14,0 C 5,6 km/h (2 Bft)
06.10.2015 18:00 13,4 C 92 % 1007,7 hPa 0,0 l/m 0,9 km/h (0 Bft) N 0,00 h 0,025 mm 0,0 UV-I 14 W/m 12,1 C 13,4 C 3,5 km/h (1 Bft)
06.10.2015 19:00 13,5 C 93 % 1008,0 hPa 0,0 l/m 0,2 km/h (0 Bft) N 0,00 h 0,000 mm 0,0 UV-I 0 W/m 12,3 C 13,5 C 1,1 km/h (1 Bft)
06.10.2015 20:00 13,7 C 93 % 1008,2 hPa 0,0 l/m 0,1 km/h (0 Bft) N 0,00 h 0,000 mm 0,0 UV-I 0 W/m 12,5 C 13,7 C 0,5 km/h (0 Bft)
06.10.2015 21:00 13,4 C 92 % 1008,5 hPa 0,0 l/m 0,0 km/h (0 Bft) N 0,00 h 0,000 mm 0,0 UV-I 0 W/m 12,1 C 13,4 C 0,0 km/h (0 Bft)
06.10.2015 22:00 13,4 C 93 % 1008,8 hPa 0,0 l/m 0,3 km/h (0 Bft) N 0,00 h 0,000 mm 0,0 UV-I 0 W/m 12,3 C 13,4 C 1,4 km/h (1 Bft)
06.10.2015 23:00 13,7 C 93 % 1009,0 hPa 0,2 l/m 0,0 km/h (0 Bft) N 0,00 h 0,000 mm 0,0 UV-I 0 W/m 12,6 C 13,7 C 0,0 km/h (0 Bft)
07.10.2015 00:00 13,6 C 93 % 1008,9 hPa 1,2 l/m 0,0 km/h (0 Bft) N 0,00 h 0,000 mm 0,0 UV-I 0 W/m 12,6 C 13,6 C 0,0 km/h (0 Bft)
07.10.2015 01:00 13,4 C 95 % 1009,0 hPa 1,0 l/m 0,0 km/h (0 Bft) N 0,00 h 0,000 mm 0,0 UV-I 0 W/m 12,5 C 13,4 C 0,0 km/h (0 Bft)
07.10.2015 02:00 13,4 C 95 % 1009,1 hPa 0,0 l/m 0,0 km/h (0 Bft) N 0,00 h 0,000 mm 0,0 UV-I 0 W/m 12,7 C 13,4 C 0,1 km/h (0 Bft)
07.10.2015 03:00 13,4 C 96 % 1009,0 hPa 0,0 l/m 0,0 km/h (0 Bft) N 0,00 h 0,000 mm 0,0 UV-I 0 W/m 12,8 C 13,4 C 0,1 km/h (0 Bft)
Min-Datum _ 06.10.15 05.10.15 06.10.15 - 05.10.15 - - - - - 06.10.15 06.10.15 05.10.15
_ Min-Zeit 01:44 17:17 16:39 - 00:00 - - - - - 01:45 01:45 00:00
Minimum _ 7,9 C 70 % 1007,2 hPa - 0,0 km/h (0 Bft) - - - - - 6,7 C 7,9 C 0,0 km/h (0 Bft)
Max-Datum _ 05.10.15 05.10.15 05.10.15 07.10.15 06.10.15 - 05.10.15 05.10.15 05.10.15 05.10.15 06.10.15 05.10.15 06.10.15
_ Max-Zeit 15:42 04:54 00:49 00:04 15:10 - 08:44 14:00 13:33 13:33 14:49 15:42 15:58
Maximum _ 16,5 C 97 % 1018,1 hPa 1,2 l/m 11,3 km/h
O-NO (2 Bft)
- 0,02 h 0,178 mm 3,3 UV-I 784 W/m 13,9 C 16,5 C 17,7 km/h
O (3 Bft)
Durchschnitt _ 11,9 C 90 % 1012,3 hPa #3,2 l/m 0,6 km/h (0 Bft) N #16:53 h #1,700 mm 1,2 UV-I 132 W/m 10,4 C 11,9 C 1,6 km/h (1 Bft)